Time;durP1;ratioP1;P1;durP2;ratioP2;P2;SDS_P1;SDS_P2;PMS_P1;PMS_P2;Temp;Humidity;BMP_temperature;BMP_pressure;BME280_temperature;BME280_humidity;BME280_pressure;Samples;Min_cycle;Max_cycle;Signal;HPM_P1;HPM_P2
2022/04/25 00:02:01;;;;;;;;;;;;;;;12.97;100.00;98106.06;5061680;28;19920;-36
2022/04/25 00:04:27;;;;;;;;;;;;;;;13.50;100.00;98108.28;5059759;28;19924;-37
2022/04/25 00:06:52;;;;;;;;;;;;;;;13.55;100.00;98116.63;5060662;28;20034;-37
2022/04/25 00:09:17;;;;;;;;;;;;;;;12.92;100.00;98113.25;5060953;28;19931;-37
2022/04/25 00:11:43;;;;;;;;;;;;;;;13.34;100.00;98114.38;5060062;28;19920;-37
2022/04/25 00:14:08;;;;;;;;;;;;;;;13.04;100.00;98116.06;5064297;28;19986;-36
2022/04/25 00:16:33;;;;;;;;;;;;;;;13.81;100.00;98128.84;5059549;28;19960;-37
2022/04/25 00:19:00;;;;;;;;;;;;;;;13.94;100.00;98117.78;5060105;28;19999;-37
2022/04/25 00:21:25;;;;;;;;;;;;;;;13.00;100.00;98122.31;5061117;28;19995;-37
2022/04/25 00:23:51;;;;;;;;;;;;;;;13.48;100.00;98113.56;5063321;28;20353;-37
2022/04/25 00:26:16;;;;;;;;;;;;;;;14.08;100.00;98119.53;5062450;28;19920;-37
2022/04/25 00:28:41;;;;;;;;;;;;;;;14.11;100.00;98114.16;5060433;28;19920;-37
2022/04/25 00:31:07;;;;;;;;;;;;;;;12.64;100.00;98120.88;5059060;28;19931;-37
2022/04/25 00:33:32;;;;;;;;;;;;;;;12.82;100.00;98117.25;5062581;28;19921;-37
2022/04/25 00:35:58;;;;;;;;;;;;;;;11.98;100.00;98114.03;5059898;28;20904;-37
2022/04/25 00:38:23;;;;;;;;;;;;;;;12.71;100.00;98102.34;5061127;28;20392;-37
2022/04/25 00:40:48;;;;;;;;;;;;;;;12.19;100.00;98104.34;5060268;28;19927;-37
2022/04/25 00:43:13;;;;;;;;;;;;;;;12.02;100.00;98103.47;5061537;28;20397;-37
2022/04/25 00:45:39;;;;;;;;;;;;;;;11.51;100.00;98097.44;5060390;28;20423;-37
2022/04/25 00:48:04;;;;;;;;;;;;;;;11.72;100.00;98093.81;5061892;28;19959;-36
2022/04/25 00:50:29;;;;;;;;;;;;;;;11.41;100.00;98098.84;5063774;28;19966;-36
2022/04/25 00:52:55;;;;;;;;;;;;;;;12.63;100.00;98095.94;5065533;28;19935;-37
2022/04/25 00:55:20;;;;;;;;;;;;;;;12.12;100.00;98096.91;5062007;28;20561;-36
2022/04/25 00:57:45;;;;;;;;;;;;;;;13.03;100.00;98098.91;5063511;28;20579;-36
2022/04/25 01:00:11;;;;;;;;;;;;;;;13.88;100.00;98108.59;5064434;28;20587;-37
2022/04/25 01:02:37;;;;;;;;;;;;;;;13.14;100.00;98109.47;5064431;28;19916;-36
2022/04/25 01:05:04;;;;;;;;;;;;;;;13.89;100.00;98119.78;5065190;28;19921;-36
2022/04/25 01:07:30;;;;;;;;;;;;;;;14.50;100.00;98126.41;5063062;28;19920;-37
2022/04/25 01:09:56;;;;;;;;;;;;;;;14.95;100.00;98127.09;5065824;28;19921;-36
2022/04/25 01:12:21;;;;;;;;;;;;;;;14.14;100.00;98135.53;5063653;28;19923;-37
2022/04/25 01:14:46;;;;;;;;;;;;;;;13.69;100.00;98123.56;5066176;28;19959;-37
2022/04/25 01:17:11;;;;;;;;;;;;;;;13.98;100.00;98130.44;5065330;28;19920;-36
2022/04/25 01:19:37;;;;;;;;;;;;;;;13.74;100.00;98124.13;5062627;28;19928;-37
2022/04/25 01:22:03;;;;;;;;;;;;;;;13.71;100.00;98117.38;5064006;28;19920;-36
2022/04/25 01:27:16;;;;;;;;;;;;;;;14.46;100.00;98117.19;5066006;28;19980;-37
2022/04/25 01:29:45;;;;;;;;;;;;;;;13.45;100.00;98120.66;5066124;28;20539;-37
2022/04/25 01:32:11;;;;;;;;;;;;;;;13.61;100.00;98116.25;5062909;28;19929;-37
2022/04/25 01:34:37;;;;;;;;;;;;;;;13.10;100.00;98120.88;5062195;28;19931;-37
2022/04/25 01:37:06;;;;;;;;;;;;;;;13.75;100.00;98118.88;5062071;28;19920;-37
2022/04/25 01:39:39;;;;;;;;;;;;;;;14.04;100.00;98124.06;5067098;28;20023;-37
2022/04/25 01:42:04;;;;;;;;;;;;;;;12.51;100.00;98124.09;5065940;28;19920;-37
2022/04/25 01:44:29;;;;;;;;;;;;;;;12.70;100.00;98123.09;5064755;28;19947;-37
2022/04/25 01:46:55;;;;;;;;;;;;;;;13.44;100.00;98130.19;5067423;28;20430;-37
2022/04/25 01:49:20;;;;;;;;;;;;;;;12.44;100.00;98121.94;5062866;28;19928;-37
2022/04/25 01:51:45;;;;;;;;;;;;;;;12.34;100.00;98131.94;5064123;28;20056;-37
2022/04/25 01:54:10;;;;;;;;;;;;;;;12.31;100.00;98130.31;5066063;28;19931;-36
2022/04/25 01:56:36;;;;;;;;;;;;;;;12.68;100.00;98128.34;5060178;28;19921;-37
2022/04/25 01:59:01;;;;;;;;;;;;;;;13.04;100.00;98123.81;5064167;28;20882;-36
2022/04/25 02:01:27;;;;;;;;;;;;;;;13.50;100.00;98126.38;5059661;28;21686;-36
2022/04/25 02:03:52;;;;;;;;;;;;;;;12.94;100.00;98126.09;5064361;28;19920;-36
2022/04/25 02:06:17;;;;;;;;;;;;;;;13.43;100.00;98122.50;5062561;28;19920;-36
2022/04/25 02:08:43;;;;;;;;;;;;;;;12.92;100.00;98128.75;5061000;28;20408;-37
2022/04/25 02:11:21;;;;;;;;;;;;;;;13.50;100.00;98123.78;5063803;28;19924;-37
2022/04/25 02:13:51;;;;;;;;;;;;;;;13.38;100.00;98128.75;5065855;28;19946;-37
2022/04/25 02:16:16;;;;;;;;;;;;;;;13.29;100.00;98131.03;5063934;28;19965;-36
2022/04/25 02:18:42;;;;;;;;;;;;;;;13.81;100.00;98128.84;5064395;28;19927;-45
2022/04/25 02:21:07;;;;;;;;;;;;;;;14.36;100.00;98129.03;5064699;28;20042;-48
2022/04/25 02:23:33;;;;;;;;;;;;;;;14.70;100.00;98119.22;5064757;28;19927;-46
2022/04/25 02:25:58;;;;;;;;;;;;;;;14.86;100.00;98119.91;5064421;28;20356;-45
2022/04/25 02:28:23;;;;;;;;;;;;;;;14.82;100.00;98110.66;5064311;28;19920;-49
2022/04/25 02:30:51;;;;;;;;;;;;;;;14.93;100.00;98110.78;5061992;28;19924;-45
2022/04/25 02:33:16;;;;;;;;;;;;;;;14.78;100.00;98114.34;5059039;28;19920;-48
2022/04/25 02:35:41;;;;;;;;;;;;;;;14.13;100.00;98126.09;5066259;28;19927;-45
2022/04/25 02:38:06;;;;;;;;;;;;;;;14.41;100.00;98117.47;5062334;28;19924;-45
2022/04/25 02:40:32;;;;;;;;;;;;;;;14.46;100.00;98124.13;5063535;28;19925;-46
2022/04/25 02:42:57;;;;;;;;;;;;;;;14.66;100.00;98122.91;5064634;28;19928;-44
2022/04/25 02:45:22;;;;;;;;;;;;;;;14.57;100.00;98120.00;5061007;28;20567;-45
2022/04/25 02:47:47;;;;;;;;;;;;;;;14.62;100.00;98115.34;5065357;28;20732;-46
2022/04/25 02:50:12;;;;;;;;;;;;;;;14.66;100.00;98115.97;5061864;28;19931;-45
2022/04/25 02:52:38;;;;;;;;;;;;;;;14.80;100.00;98112.50;5060257;28;19967;-47
2022/04/25 02:55:03;;;;;;;;;;;;;;;14.56;100.00;98112.31;5059290;28;19964;-47
2022/04/25 02:57:28;;;;;;;;;;;;;;;14.09;100.00;98119.44;5062297;28;20575;-45
2022/04/25 02:59:54;;;;;;;;;;;;;;;14.35;100.00;98111.84;5061119;28;20297;-46
2022/04/25 03:02:19;;;;;;;;;;;;;;;13.97;100.00;98118.41;5061384;28;19921;-45
2022/04/25 03:04:44;;;;;;;;;;;;;;;13.49;100.00;98111.81;5063184;28;19931;-46
2022/04/25 03:07:09;;;;;;;;;;;;;;;13.63;100.00;98109.22;5062633;28;20391;-47
2022/04/25 03:09:35;;;;;;;;;;;;;;;14.34;100.00;98099.81;5060472;28;19955;-48
2022/04/25 03:12:00;;;;;;;;;;;;;;;13.98;100.00;98104.56;5060348;28;19967;-46
2022/04/25 03:14:26;;;;;;;;;;;;;;;13.52;100.00;98106.44;5060080;28;19947;-45
2022/04/25 03:16:51;;;;;;;;;;;;;;;13.75;100.00;98108.53;5064950;28;19928;-45
2022/04/25 03:19:17;;;;;;;;;;;;;;;14.11;100.00;98106.41;5060703;28;20031;-46
2022/04/25 03:21:42;;;;;;;;;;;;;;;14.07;100.00;98110.94;5059936;28;19920;-49
2022/04/25 03:24:08;;;;;;;;;;;;;;;14.61;100.00;98095.53;5062145;28;19977;-45
2022/04/25 03:26:33;;;;;;;;;;;;;;;14.55;100.00;98101.13;5062170;28;20006;-45
2022/04/25 03:28:58;;;;;;;;;;;;;;;14.67;100.00;98096.91;5060152;28;20598;-45
2022/04/25 03:31:23;;;;;;;;;;;;;;;14.83;100.00;98096.78;5060242;28;19924;-46
2022/04/25 03:33:49;;;;;;;;;;;;;;;14.55;100.00;98098.53;5060658;28;19921;-48
2022/04/25 03:36:14;;;;;;;;;;;;;;;14.60;100.00;98104.25;5065519;28;19920;-46
2022/04/25 03:38:42;;;;;;;;;;;;;;;14.84;100.00;98103.59;5058991;28;20104;-47
2022/04/25 03:41:07;;;;;;;;;;;;;;;14.97;100.00;98103.66;5062003;28;19920;-46
2022/04/25 03:43:34;;;;;;;;;;;;;;;15.05;100.00;98107.44;5061787;28;20581;-45
2022/04/25 03:45:59;;;;;;;;;;;;;;;15.10;100.00;98098.50;5063121;28;19931;-45
2022/04/25 03:48:25;;;;;;;;;;;;;;;15.05;100.00;98102.25;5062871;28;19920;-48
2022/04/25 03:50:50;;;;;;;;;;;;;;;15.08;100.00;98105.56;5060936;28;19924;-47
2022/04/25 03:53:15;;;;;;;;;;;;;;;14.99;100.00;98105.22;5063564;28;19920;-47
2022/04/25 03:58:25;;;;;;;;;;;;;;;14.48;100.00;98120.50;5062472;28;20256;-46
2022/04/25 04:00:50;;;;;;;;;;;;;;;14.92;100.00;98113.50;5060112;28;19954;-45
2022/04/25 04:03:17;;;;;;;;;;;;;;;14.82;100.00;98110.66;5057621;28;20005;-44
2022/04/25 04:05:42;;;;;;;;;;;;;;;15.03;100.00;98111.88;5061184;28;19927;-45
2022/04/25 04:08:08;;;;;;;;;;;;;;;14.87;100.00;98118.13;5064669;28;19920;-44
2022/04/25 04:10:34;;;;;;;;;;;;;;;14.92;100.00;98118.69;5063939;28;19924;-45
2022/04/25 04:13:00;;;;;;;;;;;;;;;14.86;100.00;98117.31;5061330;28;19920;-45
2022/04/25 04:15:25;;;;;;;;;;;;;;;14.80;100.00;98120.28;5062255;28;21113;-46
2022/04/25 04:17:50;;;;;;;;;;;;;;;14.30;100.00;98124.22;5064096;28;20035;-46
2022/04/25 04:20:16;;;;;;;;;;;;;;;13.91;100.00;98129.16;5062665;28;20790;-45
2022/04/25 04:22:41;;;;;;;;;;;;;;;14.05;100.00;98128.31;5061514;28;20712;-46
2022/04/25 04:25:08;;;;;;;;;;;;;;;14.12;100.00;98132.22;5061270;28;19947;-45
2022/04/25 04:27:33;;;;;;;;;;;;;;;13.39;100.00;98133.03;5060121;28;19928;-44
2022/04/25 04:29:58;;;;;;;;;;;;;;;13.60;100.00;98136.13;5062386;28;20564;-44
2022/04/25 04:32:28;;;;;;;;;;;;;;;12.64;100.00;98142.34;5062145;28;20012;-46
2022/04/25 04:34:54;;;;;;;;;;;;;;;11.92;100.00;98146.13;5061180;28;20377;-44
2022/04/25 04:37:19;;;;;;;;;;;;;;;12.58;100.00;98149.59;5059216;28;19920;-46
2022/04/25 04:39:44;;;;;;;;;;;;;;;12.38;100.00;98148.06;5061220;28;20699;-44
2022/04/25 04:42:09;;;;;;;;;;;;;;;12.05;100.00;98147.19;5060459;28;20353;-46
2022/04/25 04:44:36;;;;;;;;;;;;;;;11.86;100.00;98146.41;5060413;28;20411;-46
2022/04/25 04:47:01;;;;;;;;;;;;;;;12.27;100.00;98146.03;5059670;28;19920;-47
2022/04/25 04:49:26;;;;;;;;;;;;;;;11.74;100.00;98150.44;5057806;28;19974;-48
2022/04/25 04:51:51;;;;;;;;;;;;;;;11.70;100.00;98152.38;5057395;28;19940;-43
2022/04/25 04:54:17;;;;;;;;;;;;;;;12.11;100.00;98156.34;5061116;28;19924;-46
2022/04/25 04:56:42;;;;;;;;;;;;;;;11.27;100.00;98161.38;5059167;28;20400;-44
2022/04/25 04:59:07;;;;;;;;;;;;;;;10.85;100.00;98150.44;5058899;28;19920;-45
2022/04/25 05:01:33;;;;;;;;;;;;;;;11.63;100.00;98152.72;5058923;28;20007;-46
2022/04/25 05:03:58;;;;;;;;;;;;;;;11.93;100.00;98155.56;5060435;28;19964;-46
2022/04/25 05:06:27;;;;;;;;;;;;;;;11.82;100.00;98150.91;5063585;28;19920;-45
2022/04/25 05:08:52;;;;;;;;;;;;;;;12.46;100.00;98162.25;5063298;28;20039;-48
2022/04/25 05:11:17;;;;;;;;;;;;;;;12.10;100.00;98162.44;5063824;28;19930;-46
2022/04/25 05:13:42;;;;;;;;;;;;;;;12.96;100.00;98166.44;5062771;28;20332;-46
2022/04/25 05:16:08;;;;;;;;;;;;;;;12.62;100.00;98170.00;5061511;28;19976;-47
2022/04/25 05:18:33;;;;;;;;;;;;;;;13.23;100.00;98167.53;5063497;28;20265;-45
2022/04/25 05:21:01;;;;;;;;;;;;;;;12.96;100.00;98179.34;5064426;28;19973;-47
2022/04/25 05:23:27;;;;;;;;;;;;;;;12.61;100.00;98181.25;5061669;28;19968;-45
2022/04/25 05:25:52;;;;;;;;;;;;;;;13.12;100.00;98181.09;5064305;28;19920;-46
2022/04/25 05:28:17;;;;;;;;;;;;;;;13.05;100.00;98182.34;5063927;28;19924;-44
2022/04/25 05:30:44;;;;;;;;;;;;;;;13.13;100.00;98182.75;5059494;28;19924;-48
2022/04/25 05:33:09;;;;;;;;;;;;;;;13.31;100.00;98192.09;5059836;28;20594;-47
2022/04/25 05:35:35;;;;;;;;;;;;;;;13.17;100.00;98190.25;5058640;28;19924;-48
2022/04/25 05:38:00;;;;;;;;;;;;;;;13.68;100.00;98192.59;5064436;28;20791;-48
2022/04/25 05:40:26;;;;;;;;;;;;;;;13.23;100.00;98194.25;5065319;28;19931;-48
2022/04/25 05:42:52;;;;;;;;;;;;;;;12.79;100.00;98199.25;5067979;28;19955;-47
2022/04/25 05:45:21;;;;;;;;;;;;;;;12.89;100.00;98198.69;5065867;28;19916;-46
2022/04/25 05:47:47;;;;;;;;;;;;;;;13.09;100.00;98197.63;5069697;28;19917;-46
2022/04/25 05:52:57;;;;;;;;;;;;;;;13.37;100.00;98212.44;5068109;28;19959;-47
2022/04/25 05:55:23;;;;;;;;;;;;;;;13.92;100.00;98210.22;5049860;28;20439;-47
2022/04/25 05:57:48;;;;;;;;;;;;;;;13.71;100.00;98210.53;5066913;28;19928;-44
2022/04/25 06:00:14;;;;;;;;;;;;;;;13.06;100.00;98217.63;5063225;28;19916;-45
2022/04/25 06:02:40;;;;;;;;;;;;;;;12.88;100.00;98209.09;5065892;28;19916;-48
2022/04/25 06:05:06;;;;;;;;;;;;;;;12.65;100.00;98212.94;5067242;28;20378;-45
2022/04/25 06:07:32;;;;;;;;;;;;;;;12.76;100.00;98216.59;5065076;28;19917;-47
2022/04/25 06:09:57;;;;;;;;;;;;;;;12.42;100.00;98214.97;5065454;28;20000;-47
2022/04/25 06:12:22;;;;;;;;;;;;;;;12.62;100.00;98215.69;5065147;28;20676;-46
2022/04/25 06:14:48;;;;;;;;;;;;;;;12.80;100.00;98230.19;5062836;28;19920;-49
2022/04/25 06:17:15;;;;;;;;;;;;;;;13.55;100.00;98225.28;5064712;28;19920;-48
2022/04/25 06:19:40;;;;;;;;;;;;;;;14.67;100.00;98233.44;5066011;28;20031;-45
2022/04/25 06:22:05;;;;;;;;;;;;;;;14.13;100.00;98234.00;5064766;28;20539;-46
2022/04/25 06:24:30;;;;;;;;;;;;;;;13.23;100.00;98239.94;5065141;28;19947;-47
2022/04/25 06:26:57;;;;;;;;;;;;;;;13.38;100.00;98239.97;5066270;28;20027;-48
2022/04/25 06:29:24;;;;;;;;;;;;;;;13.97;100.00;98247.03;5065206;28;19924;-47
2022/04/25 06:31:49;;;;;;;;;;;;;;;13.11;100.00;98246.63;5063835;28;19967;-46
2022/04/25 06:34:14;;;;;;;;;;;;;;;12.51;100.00;98250.63;5065330;28;20010;-47
2022/04/25 06:36:40;;;;;;;;;;;;;;;13.18;100.00;98248.81;5065986;28;19916;-46
2022/04/25 06:39:05;;;;;;;;;;;;;;;12.74;100.00;98258.94;5064989;28;20803;-47
2022/04/25 06:41:30;;;;;;;;;;;;;;;13.25;100.00;98254.47;5065359;28;19916;-46
2022/04/25 06:43:58;;;;;;;;;;;;;;;12.52;100.00;98254.91;5066201;28;19927;-46
2022/04/25 06:46:24;;;;;;;;;;;;;;;11.77;100.00;98257.78;5062365;28;20749;-45
2022/04/25 06:51:33;;;;;;;;;;;;;;;12.12;100.00;98250.94;5061517;28;19928;-46
2022/04/25 06:53:59;;;;;;;;;;;;;;;13.12;100.00;98249.13;5066068;28;19917;-46
2022/04/25 06:56:24;;;;;;;;;;;;;;;12.79;100.00;98256.94;5063846;28;19920;-46
2022/04/25 06:58:49;;;;;;;;;;;;;;;13.16;100.00;98255.81;5064730;28;19938;-51
2022/04/25 07:01:15;;;;;;;;;;;;;;;12.95;100.00;98262.97;5066123;28;19916;-49
2022/04/25 07:03:40;;;;;;;;;;;;;;;12.94;100.00;98265.63;5062998;28;19917;-46
2022/04/25 07:06:05;;;;;;;;;;;;;;;13.11;100.00;98268.16;5062702;28;21034;-47
2022/04/25 07:08:30;;;;;;;;;;;;;;;13.11;100.00;98272.47;5065256;28;19916;-46
2022/04/25 07:10:56;;;;;;;;;;;;;;;12.28;100.00;98266.47;5060377;28;19916;-46
2022/04/25 07:13:21;;;;;;;;;;;;;;;13.02;100.00;98272.97;5066065;28;19923;-49
2022/04/25 07:15:46;;;;;;;;;;;;;;;13.02;100.00;98272.97;5063976;28;20353;-46
2022/04/25 07:18:13;;;;;;;;;;;;;;;13.30;100.00;98275.78;5066703;28;20409;-46
2022/04/25 07:20:38;;;;;;;;;;;;;;;13.29;100.00;98281.84;5063309;28;19927;-48
2022/04/25 07:28:49;;;;;;;;;;;;;;;12.43;100.00;98286.38;5064971;28;19924;-45
2022/04/25 07:31:15;;;;;;;;;;;;;;;13.07;100.00;98283.88;5062787;28;19920;-46
2022/04/25 07:33:43;;;;;;;;;;;;;;;12.81;100.00;98291.28;5062869;28;21389;-45
2022/04/25 07:36:08;;;;;;;;;;;;;;;12.22;100.00;98297.75;5063913;28;20449;-46
2022/04/25 07:38:33;;;;;;;;;;;;;;;12.30;100.00;98300.81;5063615;28;19927;-46
2022/04/25 07:41:00;;;;;;;;;;;;;;;12.75;100.00;98291.63;5062997;28;19923;-46
2022/04/25 07:43:25;;;;;;;;;;;;;;;12.64;100.00;98301.69;5064362;28;19921;-47
2022/04/25 07:45:51;;;;;;;;;;;;;;;13.16;100.00;98304.09;5065820;28;20371;-46
2022/04/25 07:48:16;;;;;;;;;;;;;;;12.80;100.00;98314.63;5063085;28;19948;-38
2022/04/25 07:50:44;;;;;;;;;;;;;;;13.52;100.00;98318.56;5064488;28;20041;-40
2022/04/25 07:53:09;;;;;;;;;;;;;;;12.33;100.00;98316.13;5061866;28;19931;-39
2022/04/25 07:55:34;;;;;;;;;;;;;;;12.50;100.00;98312.72;5062465;28;19921;-39
2022/04/25 07:58:00;;;;;;;;;;;;;;;12.24;100.00;98311.44;5060153;28;20604;-38
2022/04/25 08:00:27;;;;;;;;;;;;;;;13.33;100.00;98316.97;5063277;28;20413;-39
2022/04/25 08:02:52;;;;;;;;;;;;;;;12.89;100.00;98330.50;5063704;28;19916;-39
2022/04/25 08:05:17;;;;;;;;;;;;;;;12.26;100.00;98327.69;5063536;28;20258;-38
2022/04/25 08:07:42;;;;;;;;;;;;;;;12.26;100.00;98319.94;5062445;28;19923;-39
2022/04/25 08:10:08;;;;;;;;;;;;;;;13.01;100.00;98317.84;5062850;28;20365;-38
2022/04/25 08:18:18;;;;;;;;;;;;;;;11.95;100.00;98321.47;5057128;28;20407;-39
2022/04/25 08:20:43;;;;;;;;;;;;;;;12.17;100.00;98320.41;5061473;28;19916;-39
2022/04/25 08:23:12;;;;;;;;;;;;;;;13.96;100.00;98333.38;5061251;28;20011;-38
2022/04/25 08:25:38;;;;;;;;;;;;;;;14.34;100.00;98333.75;5060206;28;20330;-38
2022/04/25 08:28:05;;;;;;;;;;;;;;;13.09;100.00;98333.75;5061516;28;19916;-38
2022/04/25 08:30:30;;;;;;;;;;;;;;;13.01;100.00;98335.94;5060454;28;19924;-38
2022/04/25 08:32:56;;;;;;;;;;;;;;;13.59;100.00;98332.81;5059786;28;19961;-38
2022/04/25 08:35:21;;;;;;;;;;;;;;;13.22;100.00;98333.97;5062239;28;19916;-38
2022/04/25 08:37:46;;;;;;;;;;;;;;;13.84;100.00;98334.88;5065417;28;19916;-38
2022/04/25 08:40:11;;;;;;;;;;;;;;;13.30;100.00;98339.59;5062283;28;20012;-38
2022/04/25 08:42:37;;;;;;;;;;;;;;;13.63;100.00;98334.31;5061000;28;20714;-38
2022/04/25 08:45:05;;;;;;;;;;;;;;;14.18;100.00;98338.97;5062938;28;19928;-38
2022/04/25 08:47:33;;;;;;;;;;;;;;;13.25;100.00;98336.38;5061653;28;20070;-38
2022/04/25 08:49:58;;;;;;;;;;;;;;;13.78;100.00;98336.06;5058128;28;19920;-39
2022/04/25 08:52:25;;;;;;;;;;;;;;;13.28;100.00;98337.09;5058409;28;19947;-38
2022/04/25 08:54:50;;;;;;;;;;;;;;;14.92;100.00;98344.25;5056901;28;20932;-38
2022/04/25 08:57:17;;;;;;;;;;;;;;;14.22;100.00;98345.66;5062775;28;19924;-36
2022/04/25 08:59:42;;;;;;;;;;;;;;;14.10;100.00;98351.53;5060592;28;20345;-36
2022/04/25 09:02:07;;;;;;;;;;;;;;;14.77;100.00;98356.34;5061408;28;20019;-44
2022/04/25 09:04:33;;;;;;;;;;;;;;;16.00;100.00;98356.56;5064042;28;19920;-36
2022/04/25 09:06:59;;;;;;;;;;;;;;;15.42;100.00;98361.88;5058284;28;19924;-36
2022/04/25 09:09:25;;;;;;;;;;;;;;;15.72;100.00;98365.28;5059259;28;20046;-46
2022/04/25 09:14:35;;;;;;;;;;;;;;;15.18;100.00;98371.16;5064149;28;20892;-48
2022/04/25 09:17:03;;;;;;;;;;;;;;;14.66;100.00;98374.28;5063822;28;20101;-44
2022/04/25 09:19:28;;;;;;;;;;;;;;;14.42;100.00;98372.19;5064050;28;19920;-46
2022/04/25 09:21:53;;;;;;;;;;;;;;;13.83;100.00;98373.81;5064340;28;20018;-47
2022/04/25 09:24:29;;;;;;;;;;;;;;;14.94;100.00;98379.53;5064194;28;19917;-46
2022/04/25 09:27:06;;;;;;;;;;;;;;;15.37;100.00;98376.06;5066457;28;19916;-44
2022/04/25 09:29:31;;;;;;;;;;;;;;;15.92;100.00;98377.00;5065583;28;19917;-45
2022/04/25 09:31:57;;;;;;;;;;;;;;;16.06;100.00;98379.56;5064164;28;19927;-45
2022/04/25 09:37:06;;;;;;;;;;;;;;;16.17;100.00;98377.09;5065735;28;19941;-46
2022/04/25 09:39:31;;;;;;;;;;;;;;;14.95;100.00;98381.16;5067809;28;19916;-44
2022/04/25 09:41:57;;;;;;;;;;;;;;;15.97;100.00;98380.16;5064301;28;19977;-47
2022/04/25 09:44:23;;;;;;;;;;;;;;;15.44;100.00;98377.34;5063332;28;20362;-47
2022/04/25 09:46:48;;;;;;;;;;;;;;;15.23;100.00;98374.31;5062152;28;20945;-45
2022/04/25 09:49:20;;;;;;;;;;;;;;;14.66;100.00;98379.47;5065363;28;19927;-45
2022/04/25 09:51:58;;;;;;;;;;;;;;;14.88;100.00;98379.88;5060849;28;19926;-44
2022/04/25 09:54:24;;;;;;;;;;;;;;;14.99;100.00;98381.84;5062216;28;19995;-45
2022/04/25 09:56:49;;;;;;;;;;;;;;;15.31;100.00;98386.84;5062720;28;19932;-45
2022/04/25 09:59:15;;;;;;;;;;;;;;;15.26;100.00;98389.72;5063063;28;19999;-44
2022/04/25 10:01:40;;;;;;;;;;;;;;;15.72;100.00;98397.28;5063657;28;20062;-45
2022/04/25 10:04:38;;;;;;;;;;;;;;;15.01;100.00;98401.56;5065762;28;19976;-45
2022/04/25 10:07:04;;;;;;;;;;;;;;;14.42;100.00;98400.69;5022393;28;19916;-46
2022/04/25 10:09:31;;;;;;;;;;;;;;;14.90;100.00;98403.94;5066731;28;19920;-44
2022/04/25 10:12:01;;;;;;;;;;;;;;;16.76;100.00;98399.22;5063189;28;19920;-45
2022/04/25 10:14:26;;;;;;;;;;;;;;;15.02;100.00;98397.19;5064758;28;19920;-45
2022/04/25 10:16:52;;;;;;;;;;;;;;;16.07;100.00;98409.78;5050990;28;20320;-45
2022/04/25 10:19:18;;;;;;;;;;;;;;;15.19;100.00;98404.81;5061776;28;19926;-44
2022/04/25 10:21:43;;;;;;;;;;;;;;;15.57;100.00;98413.75;5065899;28;19926;-45
2022/04/25 10:24:08;;;;;;;;;;;;;;;15.38;100.00;98414.88;5061576;28;20777;-46
2022/04/25 10:26:33;;;;;;;;;;;;;;;15.65;100.00;98414.97;5064574;28;20270;-44
2022/04/25 10:29:08;;;;;;;;;;;;;;;16.15;100.00;98425.72;5064924;28;19955;-44
2022/04/25 10:31:41;;;;;;;;;;;;;;;15.33;100.00;98421.31;5063229;28;20289;-44
2022/04/25 10:34:07;;;;;;;;;;;;;;;15.93;100.00;98417.63;5063638;28;20000;-44
2022/04/25 10:36:38;;;;;;;;;;;;;;;16.66;100.00;98412.00;5064544;28;19927;-45
2022/04/25 10:39:22;;;;;;;;;;;;;;;16.90;100.00;98418.22;5063021;28;19923;-45
2022/04/25 10:44:38;;;;;;;;;;;;;;;16.23;100.00;98414.81;5066915;28;20050;-46
2022/04/25 10:47:03;;;;;;;;;;;;;;;15.64;100.00;98417.63;5065694;28;20154;-45
2022/04/25 10:49:32;;;;;;;;;;;;;;;15.48;100.00;98421.16;5064164;28;19916;-45
2022/04/25 10:51:57;;;;;;;;;;;;;;;15.35;100.00;98425.47;5063151;28;19924;-46
2022/04/25 10:54:27;;;;;;;;;;;;;;;15.11;100.00;98432.13;5067446;28;19938;-48
2022/04/25 10:57:08;;;;;;;;;;;;;;;15.06;100.00;98425.44;5062297;28;19926;-45
2022/04/25 10:59:33;;;;;;;;;;;;;;;16.75;100.00;98428.78;5066432;28;19920;-44
2022/04/25 11:01:58;;;;;;;;;;;;;;;15.94;100.00;98432.25;5061085;28;19916;-45
2022/04/25 11:04:24;;;;;;;;;;;;;;;15.58;100.00;98441.41;5062724;28;19923;-46
2022/04/25 11:07:18;;;;;;;;;;;;;;;14.80;100.00;98434.78;5062645;28;19916;-36
2022/04/25 11:09:43;;;;;;;;;;;;;;;16.11;100.00;98432.03;5061681;28;20376;-36
2022/04/25 11:12:08;;;;;;;;;;;;;;;14.09;100.00;98440.47;5066036;28;19927;-36
2022/04/25 11:14:33;;;;;;;;;;;;;;;15.16;100.00;98440.47;5063342;28;20338;-36
2022/04/25 11:17:12;;;;;;;;;;;;;;;15.53;100.00;98443.41;5061835;28;20402;-36
2022/04/25 11:19:56;;;;;;;;;;;;;;;15.43;100.00;98445.75;5062788;28;19932;-36
2022/04/25 11:22:37;;;;;;;;;;;;;;;14.77;100.00;98449.66;5066558;28;19916;-36
2022/04/25 11:25:22;;;;;;;;;;;;;;;15.11;100.00;98448.50;5063499;28;19916;-36
2022/04/25 11:28:00;;;;;;;;;;;;;;;15.48;100.00;98451.47;5063908;28;19916;-36
2022/04/25 11:30:25;;;;;;;;;;;;;;;15.46;100.00;98456.78;5062650;28;19944;-36
2022/04/25 11:32:50;;;;;;;;;;;;;;;16.44;100.00;98454.16;5062210;28;19995;-36
2022/04/25 11:35:16;;;;;;;;;;;;;;;16.31;100.00;98461.94;5060212;28;20014;-36
2022/04/25 11:37:41;;;;;;;;;;;;;;;15.78;100.00;98469.59;5026351;28;19955;-36
2022/04/25 11:40:07;;;;;;;;;;;;;;;15.56;100.00;98467.44;5062377;28;19920;-36
2022/04/25 11:42:33;;;;;;;;;;;;;;;15.49;100.00;98468.75;5061672;28;20758;-36
2022/04/25 11:44:58;;;;;;;;;;;;;;;16.49;100.00;98468.56;5063641;28;19920;-36
2022/04/25 11:47:23;;;;;;;;;;;;;;;15.22;100.00;98473.81;5064666;28;19923;-36
2022/04/25 11:49:55;;;;;;;;;;;;;;;15.12;100.00;98470.09;5063951;28;19922;-36
2022/04/25 11:52:22;;;;;;;;;;;;;;;15.76;100.00;98474.03;5064170;28;19967;-36
2022/04/25 11:54:47;;;;;;;;;;;;;;;16.52;100.00;98470.13;5062679;28;19966;-36
2022/04/25 11:57:12;;;;;;;;;;;;;;;17.35;100.00;98464.63;5058603;28;20039;-37
2022/04/25 11:59:38;;;;;;;;;;;;;;;15.31;100.00;98465.50;5059267;28;19924;-37
2022/04/25 12:02:03;;;;;;;;;;;;;;;16.35;100.00;98472.97;5060182;28;19923;-37
2022/04/25 12:04:29;;;;;;;;;;;;;;;15.94;100.00;98469.44;5062993;28;19974;-37
2022/04/25 12:06:55;;;;;;;;;;;;;;;15.53;100.00;98471.97;5063440;28;19920;-37
2022/04/25 12:17:46;;;;;;;;;;;;;;;15.46;100.00;98485.34;5060710;28;20729;-37
2022/04/25 12:20:12;;;;;;;;;;;;;;;15.06;100.00;98479.06;5057671;28;20015;-37
2022/04/25 12:22:38;;;;;;;;;;;;;;;15.20;100.00;98488.63;5060670;28;19923;-37
2022/04/25 12:25:17;;;;;;;;;;;;;;;15.46;100.00;98489.66;5058450;28;19920;-37
2022/04/25 12:28:01;;;;;;;;;;;;;;;15.76;100.00;98489.63;5060362;28;19921;-37
2022/04/25 12:30:28;;;;;;;;;;;;;;;15.93;100.00;98495.53;5061660;28;20057;-37
2022/04/25 12:33:09;;;;;;;;;;;;;;;16.44;100.00;98493.16;5060754;28;19961;-37
2022/04/25 12:35:35;;;;;;;;;;;;;;;16.66;100.00;98480.44;5061902;28;20021;-37
2022/04/25 12:38:01;;;;;;;;;;;;;;;17.29;100.00;98484.09;5063052;28;19920;-37
2022/04/25 12:40:26;;;;;;;;;;;;;;;16.61;100.00;98489.50;5062161;28;20262;-37
2022/04/25 12:42:54;;;;;;;;;;;;;;;15.39;100.00;98489.19;5060689;28;19916;-37
2022/04/25 12:45:19;;;;;;;;;;;;;;;15.18;100.00;98490.47;5062900;28;19920;-37
2022/04/25 12:47:45;;;;;;;;;;;;;;;14.91;100.00;98493.75;5064177;28;19979;-37
2022/04/25 12:50:11;;;;;;;;;;;;;;;14.17;100.00;98492.69;5064151;28;20696;-37
2022/04/25 12:52:49;;;;;;;;;;;;;;;15.13;100.00;98488.16;5068383;28;20035;-49
2022/04/25 12:55:14;;;;;;;;;;;;;;;16.79;100.00;98483.13;5064250;28;19916;-36
2022/04/25 12:57:48;;;;;;;;;;;;;;;15.86;100.00;98488.09;5063362;28;19927;-36
2022/04/25 13:00:14;;;;;;;;;;;;;;;14.60;100.00;98490.34;5068213;28;20057;-36
2022/04/25 13:02:41;;;;;;;;;;;;;;;14.94;100.00;98497.94;5064468;28;20796;-36
2022/04/25 13:05:13;;;;;;;;;;;;;;;16.13;100.00;98491.69;5066057;28;19923;-36
2022/04/25 13:07:39;;;;;;;;;;;;;;;15.68;100.00;98481.41;5062782;28;20312;-36
2022/04/25 13:10:12;;;;;;;;;;;;;;;16.35;100.00;98491.97;5065367;28;19917;-36
2022/04/25 13:12:39;;;;;;;;;;;;;;;16.51;100.00;98489.22;5066717;28;19960;-36